Aérodrome :
LOGIN :

S'inscrire | Disclaimer

   EN    FR    IT 

 










Légende :    VFR   VFR Marginal   IFR   IFR Intensif   IFR Très Intensif
Visi : 
Plafond : 
>= 8 km
>= 3000ft
5 à 8 km
1000 à 3000 ft
1500m à 5 km
500 à 1000 ft
800 à 1500m
200 à 500 ft
< 800m
< 200 ft
Symboles :   Orages  Brouillard  Fortes neiges  Fortes précipitations  Vent > 20 kt
SIGMETs :   Divers  Orages  Givrage  Turbulence  Onde Orograph.  Cendres Volcan.







- Altitude de l'aérodrome : 935 ft


EBFS - Florennes

DERNIER METAR :
  • 202040Z 32005KT 1000 FG BKN002 BKN003 01/01 Q1001 AMB

METARs EXPIRÉS :
  • 202033Z AUTO 32004KT 1600 BR SCT002/// BKN004/// OVC007/// 01/01 Q1001 AMB
  • 202025Z AUTO 32003KT 4900 SCT003/// BKN006/// OVC008/// 02/01 Q1001 YLO
  • 202015Z AUTO 30004KT 5000 FEW003/// BKN006/// OVC009/// 01/01 Q1000 YLO
  • 201955Z AUTO 31004KT 6000 FEW003/// SCT005/// OVC010/// 01/01 Q1000 YLO
  • 201925Z AUTO 30003KT 5000 -RA FEW001/// SCT009/// BKN011/// 01/01 Q0999 GRN
  • 201921Z AUTO 31003KT 4800 -RA FEW001/// SCT006/// BKN011/// 01/01 Q0999 YLO
  • 201855Z VRB02KT 4000 -RASN BKN001 OVC002 01/01 Q0999 RED
  • 201825Z VRB01KT 2000 -RASN BKN001 OVC002 01/00 Q0999 RED
  • 201755Z VRB01KT 2000 -RASN BKN001 OVC002 01/00 Q0998 RED

TAF TAF EBFS
Valide du 20 à 19h jusqu'au 21 à 07h UTC


201541Z 2019/2107 VRB03KT 300 FG BKN001 OVC002
BECMG 2019/2022 33008KT
BECMG 2102/2104 1500 BR SCT002 BKN003
TEMPO 2102/2107 3000 BR SCT004 BKN006
Pas de NOTAMs connus pour ce terrain.
1 SIGMET publié pour la FIR Brussels (EBBU) :
 
Turbulence forte
EBBU SIGMET 05 VALID 201800/202100 EBBR
EBBU BRUSSELS FIR SEV TURB FCST NE OF LINE N5130 E00230 - N4930 E00615 FL180/310 MOV NE NC=



MET'MAP, la Météo Aéronautique d'un coup d'oeil ! - Copyright ORBIFLY Décembre 2007 - Disclaimer

ORBIFLY MET'MAP TEAM :

Programmation & Développement : Alexandra Zaïnal
Conception & Développement : Baudouin d'Aumeries
Co-Programmation & Développement : Marc-Olivier Méhu
Soutien technique & logistique : Manuel Goepfert

Contact : metmap@orbifly.com




SOURCES & CREDITS :

   NOAA